createdAt,value
2023-05-19T00:01:24.909Z,12.07
2023-05-19T00:03:28.242Z,12.18
2023-05-19T00:05:31.514Z,12.18
2023-05-19T00:07:37.511Z,12.15
2023-05-19T00:09:40.803Z,12.15
2023-05-19T00:11:43.912Z,12.08
2023-05-19T00:13:49.658Z,11.87
2023-05-19T00:15:54.961Z,11.70
2023-05-19T00:17:58.156Z,11.66
2023-05-19T00:20:01.451Z,11.63
2023-05-19T00:22:04.333Z,11.50
2023-05-19T00:24:08.024Z,11.56
2023-05-19T00:26:10.778Z,11.45
2023-05-19T00:28:13.538Z,11.52
2023-05-19T00:30:16.840Z,11.71
2023-05-19T00:32:20.914Z,11.68
2023-05-19T00:34:23.665Z,11.69
2023-05-19T00:36:26.786Z,11.72
2023-05-19T00:38:29.474Z,11.60
2023-05-19T00:40:33.426Z,11.58
2023-05-19T00:42:36.516Z,11.50
2023-05-19T00:44:41.927Z,11.52
2023-05-19T00:46:44.778Z,11.57
2023-05-19T00:48:48.851Z,11.49
2023-05-19T00:50:52.436Z,11.59
2023-05-19T00:52:55.686Z,11.50
2023-05-19T00:54:58.556Z,11.41
2023-05-19T00:57:01.838Z,11.31
2023-05-19T00:59:04.556Z,11.27
2023-05-19T01:01:07.820Z,11.24
2023-05-19T01:03:12.191Z,11.45
2023-05-19T01:05:17.066Z,11.30
2023-05-19T01:07:21.128Z,11.35
2023-05-19T01:09:24.362Z,11.33
2023-05-19T01:11:27.034Z,11.42
2023-05-19T01:13:30.359Z,11.54
2023-05-19T01:15:37.308Z,11.50
2023-05-19T01:17:46.863Z,11.45
2023-05-19T01:20:02.172Z,11.52
2023-05-19T01:22:22.866Z,11.56
2023-05-19T01:24:44.970Z,11.57
2023-05-19T01:27:10.413Z,11.68
2023-05-19T01:29:30.300Z,11.64
2023-05-19T01:31:35.300Z,11.57
2023-05-19T01:33:39.583Z,11.60
2023-05-19T01:35:44.677Z,11.64
2023-05-19T01:37:48.594Z,11.58
2023-05-19T01:39:51.521Z,11.52
2023-05-19T01:41:55.870Z,11.50
2023-05-19T01:43:59.433Z,11.42
2023-05-19T01:46:03.373Z,11.49
2023-05-19T01:48:11.111Z,11.41
2023-05-19T01:50:14.290Z,11.38
2023-05-19T01:52:17.004Z,11.55
2023-05-19T01:54:19.783Z,11.46
2023-05-19T01:56:34.999Z,11.46
2023-05-19T01:58:44.960Z,11.31
2023-05-19T02:00:53.906Z,11.26
2023-05-19T02:03:07.662Z,11.39
2023-05-19T02:05:29.339Z,11.22
2023-05-19T02:07:43.458Z,11.18
2023-05-19T02:09:59.300Z,11.20
2023-05-19T02:12:07.213Z,11.23
2023-05-19T02:14:17.078Z,11.18
2023-05-19T02:16:22.696Z,11.17
2023-05-19T02:18:25.406Z,11.14
2023-05-19T02:20:29.498Z,11.16
2023-05-19T02:22:32.318Z,11.14
2023-05-19T02:24:35.109Z,11.27
2023-05-19T02:26:38.261Z,11.27
2023-05-19T02:28:40.900Z,11.16
2023-05-19T02:30:43.595Z,11.17
2023-05-19T02:32:47.054Z,11.34
2023-05-19T02:34:50.019Z,11.18
2023-05-19T02:36:54.172Z,11.05
2023-05-19T02:38:57.035Z,11.07
2023-05-19T02:40:59.754Z,11.14
2023-05-19T02:43:03.466Z,11.23
2023-05-19T02:45:07.235Z,11.03
2023-05-19T02:47:09.984Z,11.10
2023-05-19T02:49:12.656Z,10.92
2023-05-19T02:51:15.473Z,10.93
2023-05-19T02:53:19.673Z,11.03
2023-05-19T02:55:22.395Z,10.99
2023-05-19T02:57:25.301Z,11.11
2023-05-19T02:59:28.075Z,11.12
2023-05-19T03:01:32.626Z,10.94
2023-05-19T03:03:35.599Z,10.82
2023-05-19T03:05:38.288Z,10.84
2023-05-19T03:07:41.502Z,10.77
2023-05-19T03:09:45.578Z,10.72
2023-05-19T03:11:48.272Z,10.68
2023-05-19T03:13:51.122Z,10.62
2023-05-19T03:15:53.879Z,10.63
2023-05-19T03:17:56.826Z,10.63
2023-05-19T03:19:59.560Z,10.58
2023-05-19T03:22:02.385Z,10.45
2023-05-19T03:24:05.434Z,10.33
2023-05-19T03:26:09.424Z,10.29
2023-05-19T03:28:12.087Z,10.43
2023-05-19T03:30:15.582Z,10.30
2023-05-19T03:32:18.293Z,10.39
2023-05-19T03:34:22.485Z,10.29
2023-05-19T03:36:26.161Z,10.26
2023-05-19T03:38:28.833Z,10.18
2023-05-19T03:40:31.847Z,10.10
2023-05-19T03:42:36.115Z,10.08
2023-05-19T03:44:38.790Z,10.14
2023-05-19T03:46:41.533Z,10.09
2023-05-19T03:48:44.304Z,10.14
2023-05-19T03:50:48.566Z,10.08
2023-05-19T03:52:51.391Z,10.00
2023-05-19T03:54:54.189Z,9.94
2023-05-19T03:56:56.930Z,9.98
2023-05-19T03:59:00.996Z,9.98
2023-05-19T04:01:03.713Z,10.03
2023-05-19T04:03:06.592Z,9.99
2023-05-19T04:05:09.760Z,9.99
2023-05-19T04:07:12.791Z,10.05
2023-05-19T04:09:17.169Z,10.04
2023-05-19T04:11:21.498Z,10.05
2023-05-19T04:13:24.325Z,10.04
2023-05-19T04:15:28.535Z,10.03
2023-05-19T04:17:31.425Z,10.10
2023-05-19T04:19:34.060Z,10.06
2023-05-19T04:21:36.937Z,10.08
2023-05-19T04:23:39.673Z,10.13
2023-05-19T04:25:42.576Z,10.17
2023-05-19T04:27:45.262Z,10.14
2023-05-19T04:29:48.344Z,10.23
2023-05-19T04:31:52.742Z,10.17
2023-05-19T04:33:55.428Z,10.08
2023-05-19T04:35:58.386Z,10.16
2023-05-19T04:38:01.566Z,10.00
2023-05-19T04:40:05.917Z,10.05
2023-05-19T04:42:20.909Z,10.05
2023-05-19T04:44:26.240Z,9.98
2023-05-19T04:46:30.227Z,10.14
2023-05-19T04:48:34.461Z,10.00
2023-05-19T04:50:38.608Z,10.07
2023-05-19T04:52:41.730Z,10.26
2023-05-19T04:54:44.435Z,10.12
2023-05-19T04:56:47.139Z,10.04
2023-05-19T04:58:49.795Z,10.17
2023-05-19T05:00:52.478Z,10.04
2023-05-19T05:02:57.661Z,10.19
2023-05-19T05:05:02.729Z,10.15
2023-05-19T05:07:06.061Z,10.38
2023-05-19T05:09:08.879Z,10.28
2023-05-19T05:11:12.434Z,10.33
2023-05-19T05:13:15.690Z,10.31
2023-05-19T05:15:19.279Z,10.03
2023-05-19T05:17:22.735Z,10.15
2023-05-19T05:19:26.042Z,10.24
2023-05-19T05:21:31.720Z,10.18
2023-05-19T05:23:35.181Z,10.16
2023-05-19T05:25:38.310Z,10.29
2023-05-19T05:27:41.011Z,10.41
2023-05-19T05:29:43.669Z,10.62
2023-05-19T05:31:46.382Z,10.70
2023-05-19T05:33:49.182Z,10.86
2023-05-19T05:35:51.873Z,10.73
2023-05-19T05:37:56.021Z,10.88
2023-05-19T05:39:58.659Z,10.96
2023-05-19T05:42:01.342Z,10.91
2023-05-19T05:44:04.312Z,10.79
2023-05-19T05:46:07.401Z,11.47
2023-05-19T05:48:11.562Z,11.52
2023-05-19T05:50:15.510Z,11.66
2023-05-19T05:52:20.830Z,11.80
2023-05-19T05:54:25.928Z,11.92
2023-05-19T05:56:29.038Z,12.31
2023-05-19T05:58:33.055Z,12.32
2023-05-19T06:00:36.965Z,12.41
2023-05-19T06:02:39.861Z,12.00
2023-05-19T06:04:42.695Z,12.11
2023-05-19T06:06:45.493Z,12.67
2023-05-19T06:08:48.239Z,12.52
2023-05-19T06:10:52.379Z,12.20
2023-05-19T06:12:55.172Z,12.91
2023-05-19T06:14:57.865Z,12.81
2023-05-19T06:17:00.687Z,12.82
2023-05-19T06:19:03.367Z,12.65
2023-05-19T06:21:06.090Z,12.96
2023-05-19T06:23:09.659Z,12.76
2023-05-19T06:25:12.507Z,13.00
2023-05-19T06:27:16.567Z,13.20
2023-05-19T06:29:19.229Z,13.11
2023-05-19T06:31:22.237Z,13.13
2023-05-19T06:33:28.121Z,13.27
2023-05-19T06:35:31.826Z,13.30
2023-05-19T06:37:34.464Z,13.20
2023-05-19T06:39:38.402Z,13.12
2023-05-19T06:41:41.146Z,12.99
2023-05-19T06:43:45.344Z,13.24
2023-05-19T06:45:48.067Z,13.43
2023-05-19T06:47:50.899Z,13.93
2023-05-19T06:49:55.646Z,14.10
2023-05-19T06:51:58.498Z,13.53
2023-05-19T06:54:01.260Z,13.39
2023-05-19T06:56:03.935Z,12.86
2023-05-19T06:58:06.605Z,13.35
2023-05-19T07:00:13.951Z,13.62
2023-05-19T07:02:18.886Z,13.06
2023-05-19T07:04:21.680Z,13.25
2023-05-19T07:06:24.446Z,13.22
2023-05-19T07:08:27.787Z,13.10
2023-05-19T07:10:30.709Z,13.09
2023-05-19T07:12:33.756Z,12.51
2023-05-19T07:14:37.407Z,12.75
2023-05-19T07:16:41.961Z,12.46
2023-05-19T07:18:44.701Z,12.49
2023-05-19T07:20:47.480Z,12.68
2023-05-19T07:22:50.241Z,12.62
2023-05-19T07:24:52.909Z,12.67
2023-05-19T07:26:55.633Z,12.83
2023-05-19T07:28:58.403Z,12.86
2023-05-19T07:31:01.456Z,13.29
2023-05-19T07:33:05.650Z,13.26
2023-05-19T07:35:09.010Z,13.15
2023-05-19T07:37:11.793Z,13.28
2023-05-19T07:39:15.000Z,13.37
2023-05-19T07:41:17.800Z,13.08
2023-05-19T07:43:20.535Z,13.17
2023-05-19T07:45:23.448Z,13.16
2023-05-19T07:47:26.350Z,13.09
2023-05-19T07:49:30.456Z,13.04
2023-05-19T07:51:33.175Z,12.91
2023-05-19T07:53:35.858Z,12.92
2023-05-19T07:55:38.581Z,12.74
2023-05-19T07:57:41.505Z,12.96
2023-05-19T07:59:44.306Z,12.94
2023-05-19T08:01:47.304Z,12.89
2023-05-19T08:03:50.166Z,13.13
2023-05-19T08:05:54.396Z,12.64
2023-05-19T08:07:58.814Z,12.96
2023-05-19T08:10:01.869Z,13.19
2023-05-19T08:12:05.870Z,13.06
2023-05-19T08:14:08.520Z,13.05
2023-05-19T08:16:11.501Z,13.28
2023-05-19T08:18:14.365Z,13.23
2023-05-19T08:20:17.202Z,13.18
2023-05-19T08:22:21.232Z,12.88
2023-05-19T08:24:23.891Z,13.02
2023-05-19T08:26:26.682Z,13.26
2023-05-19T08:28:29.598Z,12.91
2023-05-19T08:30:32.439Z,13.01
2023-05-19T08:32:35.269Z,12.94
2023-05-19T08:34:37.971Z,12.88
2023-05-19T08:36:40.821Z,12.67
2023-05-19T08:38:44.878Z,12.95
2023-05-19T08:40:48.309Z,12.96
2023-05-19T08:42:51.393Z,12.69
2023-05-19T08:44:54.266Z,13.00
2023-05-19T08:46:57.061Z,13.25
2023-05-19T08:49:03.055Z,13.30
2023-05-19T08:51:15.527Z,13.11
2023-05-19T08:53:32.482Z,13.13
2023-05-19T08:55:43.161Z,13.08
2023-05-19T08:57:46.542Z,13.29
2023-05-19T08:59:50.023Z,13.00
2023-05-19T09:01:54.826Z,13.27
2023-05-19T09:03:57.942Z,13.62
2023-05-19T09:06:01.877Z,13.43
2023-05-19T09:08:05.606Z,13.59
2023-05-19T09:10:14.126Z,13.26
2023-05-19T09:12:18.347Z,13.25
2023-05-19T09:14:21.016Z,12.85
2023-05-19T09:16:23.753Z,13.17
2023-05-19T09:18:27.253Z,13.48
2023-05-19T09:20:31.634Z,13.48
2023-05-19T09:22:36.542Z,13.21
2023-05-19T09:24:40.450Z,13.37
2023-05-19T09:26:43.799Z,13.02
2023-05-19T09:28:48.403Z,13.36
2023-05-19T09:31:00.027Z,13.32
2023-05-19T09:33:04.564Z,13.66
2023-05-19T09:35:08.638Z,13.46
2023-05-19T09:37:14.116Z,13.35
2023-05-19T09:39:17.242Z,13.01
2023-05-19T09:41:20.695Z,13.26
2023-05-19T09:43:23.711Z,13.40
2023-05-19T09:45:28.351Z,13.78
2023-05-19T09:47:35.409Z,13.82
2023-05-19T09:49:38.638Z,13.60
2023-05-19T09:51:42.843Z,13.60
2023-05-19T09:53:47.900Z,13.75
2023-05-19T09:55:52.236Z,13.86
2023-05-19T09:57:56.607Z,13.93
2023-05-19T10:00:01.232Z,13.84
2023-05-19T10:02:06.334Z,14.02
2023-05-19T10:04:09.634Z,13.64
2023-05-19T10:06:12.525Z,13.67
2023-05-19T10:08:17.755Z,13.57
2023-05-19T10:10:21.037Z,13.56
2023-05-19T10:12:25.283Z,13.77
2023-05-19T10:14:29.370Z,13.71
2023-05-19T10:16:33.685Z,13.62
2023-05-19T10:18:40.194Z,13.51
2023-05-19T10:20:43.453Z,13.49
2023-05-19T10:22:47.844Z,13.61
2023-05-19T10:24:50.600Z,13.62
2023-05-19T10:26:58.832Z,13.69
2023-05-19T10:29:03.359Z,13.86
2023-05-19T10:31:10.980Z,13.92
2023-05-19T10:33:17.153Z,13.83
2023-05-19T10:35:41.810Z,13.91
2023-05-19T10:37:47.550Z,13.85
2023-05-19T10:39:52.524Z,13.64
2023-05-19T10:42:04.516Z,13.80
2023-05-19T10:44:11.968Z,13.66
2023-05-19T10:46:14.765Z,13.49
2023-05-19T10:48:18.345Z,13.57
2023-05-19T10:50:21.633Z,13.52
2023-05-19T10:52:26.750Z,13.36
2023-05-19T10:54:43.345Z,13.57
2023-05-19T10:56:47.507Z,13.67
2023-05-19T10:58:52.112Z,13.43
2023-05-19T11:01:01.480Z,13.63
2023-05-19T11:03:14.860Z,13.78
2023-05-19T11:05:19.478Z,13.87
2023-05-19T11:07:24.542Z,13.69
2023-05-19T11:09:39.709Z,13.81
2023-05-19T11:11:48.235Z,13.89
2023-05-19T11:13:53.133Z,14.09
2023-05-19T11:15:57.204Z,14.47
2023-05-19T11:18:02.927Z,14.60
2023-05-19T11:20:10.876Z,14.30
2023-05-19T11:22:14.631Z,14.30
2023-05-19T11:24:39.968Z,14.03
2023-05-19T11:26:44.006Z,14.03
2023-05-19T11:28:48.727Z,13.64
2023-05-19T11:30:51.980Z,13.67
2023-05-19T11:32:55.714Z,13.73
2023-05-19T11:34:58.921Z,13.56
2023-05-19T11:37:02.865Z,13.90
2023-05-19T11:39:06.285Z,13.74
2023-05-19T11:41:10.376Z,13.75
2023-05-19T11:43:13.086Z,13.80
2023-05-19T11:45:16.167Z,14.00
2023-05-19T11:47:18.873Z,13.96
2023-05-19T11:49:21.573Z,14.01
2023-05-19T11:51:24.513Z,13.84
2023-05-19T11:53:33.299Z,13.98
2023-05-19T11:55:43.416Z,13.92
2023-05-19T11:58:03.807Z,13.86
2023-05-19T12:00:10.389Z,13.77
2023-05-19T12:02:18.942Z,13.87
2023-05-19T12:04:21.691Z,13.89
2023-05-19T12:06:24.544Z,13.76
2023-05-19T12:08:28.256Z,13.92
2023-05-19T12:10:33.866Z,13.67
2023-05-19T12:12:36.650Z,13.61
2023-05-19T12:14:41.410Z,13.52
2023-05-19T12:16:44.273Z,13.72
2023-05-19T12:18:47.126Z,13.85
2023-05-19T12:20:50.228Z,13.83
2023-05-19T12:22:53.802Z,13.86
2023-05-19T12:24:57.257Z,13.54
2023-05-19T12:27:07.429Z,14.03
2023-05-19T12:29:10.187Z,13.97
2023-05-19T12:31:14.433Z,14.07
2023-05-19T12:33:17.292Z,13.96
2023-05-19T12:35:20.393Z,14.23
2023-05-19T12:37:23.500Z,14.20
2023-05-19T12:39:26.447Z,14.27
2023-05-19T12:41:30.316Z,14.23
2023-05-19T12:43:33.465Z,14.42
2023-05-19T12:45:37.011Z,14.49
2023-05-19T12:47:41.360Z,14.37
2023-05-19T12:49:57.084Z,14.13
2023-05-19T12:52:05.210Z,14.12
2023-05-19T12:54:10.525Z,14.13
2023-05-19T12:56:14.326Z,13.72
2023-05-19T12:58:17.170Z,14.03
2023-05-19T13:00:21.899Z,14.03
2023-05-19T13:02:25.714Z,13.81
2023-05-19T13:04:29.887Z,13.86
2023-05-19T13:06:33.168Z,13.84
2023-05-19T13:08:36.304Z,14.10
2023-05-19T13:10:40.477Z,14.17
2023-05-19T13:12:43.984Z,14.05
2023-05-19T13:14:46.675Z,14.31
2023-05-19T13:16:49.458Z,14.11
2023-05-19T13:18:52.942Z,14.17
2023-05-19T13:20:57.070Z,14.15
2023-05-19T13:23:00.464Z,14.25
2023-05-19T13:25:03.156Z,14.42
2023-05-19T13:27:06.636Z,14.56
2023-05-19T13:29:09.556Z,14.60
2023-05-19T13:31:12.409Z,14.42
2023-05-19T13:33:15.305Z,14.35
2023-05-19T13:35:18.118Z,14.21
2023-05-19T13:37:22.746Z,14.65
2023-05-19T13:39:25.547Z,14.56
2023-05-19T13:41:29.348Z,14.40
2023-05-19T13:43:32.102Z,14.68
2023-05-19T13:45:34.857Z,14.27
2023-05-19T13:47:37.576Z,14.49
2023-05-19T13:49:41.200Z,14.79
2023-05-19T13:51:44.504Z,14.90
2023-05-19T13:53:48.522Z,14.75
2023-05-19T13:55:52.924Z,14.94
2023-05-19T13:57:55.601Z,14.94
2023-05-19T14:00:03.422Z,14.96
2023-05-19T14:02:07.914Z,14.69
2023-05-19T14:04:11.444Z,14.71
2023-05-19T14:06:14.581Z,14.78
2023-05-19T14:08:17.476Z,14.70
2023-05-19T14:10:21.649Z,14.72
2023-05-19T14:12:33.899Z,15.10
2023-05-19T14:14:42.360Z,14.67
2023-05-19T14:16:45.144Z,14.82
2023-05-19T14:18:47.876Z,15.18
2023-05-19T14:20:50.615Z,14.82
2023-05-19T14:22:53.354Z,14.74
2023-05-19T14:24:56.152Z,15.04
2023-05-19T14:27:00.221Z,14.73
2023-05-19T14:29:03.140Z,15.03
2023-05-19T14:31:07.530Z,15.28
2023-05-19T14:33:10.434Z,14.98
2023-05-19T14:35:13.144Z,15.06
2023-05-19T14:37:15.935Z,15.15
2023-05-19T14:39:18.624Z,14.82
2023-05-19T14:41:21.780Z,14.84
2023-05-19T14:43:25.923Z,15.03
2023-05-19T14:45:28.794Z,14.69
2023-05-19T14:47:31.568Z,14.70
2023-05-19T14:49:34.360Z,14.90
2023-05-19T14:51:37.279Z,14.96
2023-05-19T14:53:39.946Z,14.93
2023-05-19T14:55:42.659Z,14.76
2023-05-19T14:57:45.341Z,14.51
2023-05-19T14:59:49.800Z,14.56
2023-05-19T15:01:52.518Z,14.40
2023-05-19T15:03:55.250Z,14.60
2023-05-19T15:05:58.095Z,14.43
2023-05-19T15:08:00.928Z,14.59
2023-05-19T15:10:04.246Z,14.62
2023-05-19T15:12:07.114Z,14.38
2023-05-19T15:14:09.835Z,14.49
2023-05-19T15:16:17.048Z,14.60
2023-05-19T15:18:20.890Z,14.53
2023-05-19T15:20:23.614Z,14.41
2023-05-19T15:22:26.362Z,14.40
2023-05-19T15:24:29.052Z,14.31
2023-05-19T15:26:31.807Z,14.39
2023-05-19T15:28:34.574Z,14.17
2023-05-19T15:30:37.446Z,14.29
2023-05-19T15:32:41.808Z,14.47
2023-05-19T15:34:44.657Z,14.39
2023-05-19T15:36:47.806Z,14.43
2023-05-19T15:38:50.603Z,14.52
2023-05-19T15:40:53.348Z,14.54
2023-05-19T15:42:56.016Z,14.34
2023-05-19T15:44:58.693Z,14.40
2023-05-19T15:47:01.442Z,14.37
2023-05-19T15:49:05.526Z,14.72
2023-05-19T15:51:08.364Z,14.71
2023-05-19T15:53:11.305Z,14.62
2023-05-19T15:55:14.010Z,14.57
2023-05-19T15:57:16.725Z,14.59
2023-05-19T15:59:19.402Z,14.84
2023-05-19T16:01:22.337Z,14.89
2023-05-19T16:03:25.451Z,14.76
2023-05-19T16:05:29.798Z,14.67
2023-05-19T16:07:32.584Z,14.91
2023-05-19T16:09:35.430Z,14.68
2023-05-19T16:11:38.102Z,14.87
2023-05-19T16:13:40.889Z,15.05
2023-05-19T16:15:43.578Z,14.84
2023-05-19T16:17:46.336Z,14.58
2023-05-19T16:19:49.025Z,15.02
2023-05-19T16:21:53.144Z,14.82
2023-05-19T16:23:55.933Z,14.60
2023-05-19T16:25:58.710Z,14.72
2023-05-19T16:28:02.296Z,14.84
2023-05-19T16:30:05.718Z,14.80
2023-05-19T16:32:08.804Z,14.72
2023-05-19T16:34:11.556Z,14.81
2023-05-19T16:36:14.338Z,14.95
2023-05-19T16:38:18.542Z,15.15
2023-05-19T16:40:21.260Z,15.31
2023-05-19T16:42:24.020Z,14.82
2023-05-19T16:44:26.751Z,15.09
2023-05-19T16:46:31.492Z,14.86
2023-05-19T16:48:34.770Z,14.85
2023-05-19T16:50:37.789Z,14.85
2023-05-19T16:52:40.784Z,14.60
2023-05-19T16:54:45.068Z,14.69
2023-05-19T16:56:47.844Z,14.73
2023-05-19T16:58:50.534Z,14.74
2023-05-19T17:00:53.468Z,14.69
2023-05-19T17:02:56.544Z,14.63
2023-05-19T17:04:59.525Z,14.55
2023-05-19T17:07:02.180Z,14.65
2023-05-19T17:09:04.962Z,14.73
2023-05-19T17:11:09.034Z,14.70
2023-05-19T17:13:11.776Z,14.38
2023-05-19T17:15:15.349Z,14.43
2023-05-19T17:17:18.024Z,14.31
2023-05-19T17:19:20.761Z,14.36
2023-05-19T17:21:23.610Z,14.35
2023-05-19T17:23:26.258Z,14.33
2023-05-19T17:25:29.075Z,14.43
2023-05-19T17:27:33.251Z,14.45
2023-05-19T17:29:36.861Z,14.42
2023-05-19T17:31:39.802Z,14.30
2023-05-19T17:33:42.669Z,14.57
2023-05-19T17:35:45.437Z,14.31
2023-05-19T17:37:48.164Z,14.34
2023-05-19T17:39:50.931Z,14.39
2023-05-19T17:41:53.707Z,14.57
2023-05-19T17:43:57.777Z,14.44
2023-05-19T17:46:01.293Z,14.36
2023-05-19T17:48:04.794Z,14.28
2023-05-19T17:50:08.551Z,14.18
2023-05-19T17:52:11.823Z,14.11
2023-05-19T17:54:15.004Z,14.19
2023-05-19T17:56:19.837Z,14.16
2023-05-19T17:58:23.132Z,14.02
2023-05-19T18:00:27.821Z,13.93
2023-05-19T18:02:31.077Z,13.97
2023-05-19T18:04:34.757Z,13.88
2023-05-19T18:06:39.055Z,13.93
2023-05-19T18:08:43.200Z,13.88
2023-05-19T18:10:48.478Z,13.89
2023-05-19T18:12:51.200Z,13.88
2023-05-19T18:14:53.924Z,13.73
2023-05-19T18:16:58.018Z,13.59
2023-05-19T18:19:00.921Z,13.58
2023-05-19T18:21:03.769Z,13.54
2023-05-19T18:23:06.915Z,13.64
2023-05-19T18:25:10.775Z,13.51
2023-05-19T18:27:13.548Z,13.54
2023-05-19T18:29:16.275Z,13.48
2023-05-19T18:31:19.818Z,13.42
2023-05-19T18:33:25.881Z,13.32
2023-05-19T18:35:29.490Z,13.23
2023-05-19T18:37:32.271Z,13.25
2023-05-19T18:39:34.973Z,13.18
2023-05-19T18:41:41.182Z,13.13
2023-05-19T18:43:43.918Z,13.18
2023-05-19T18:45:47.772Z,13.11
2023-05-19T18:47:50.581Z,13.13
2023-05-19T18:49:54.762Z,13.11
2023-05-19T18:51:57.414Z,13.14
2023-05-19T18:54:00.073Z,13.11
2023-05-19T18:56:03.815Z,13.09
2023-05-19T18:58:07.089Z,13.17
2023-05-19T19:00:10.732Z,13.01
2023-05-19T19:02:13.609Z,12.98
2023-05-19T19:04:16.803Z,12.94
2023-05-19T19:06:22.993Z,12.88
2023-05-19T19:08:26.421Z,12.82
2023-05-19T19:10:29.656Z,12.81
2023-05-19T19:12:32.326Z,12.81
2023-05-19T19:14:35.024Z,12.78
2023-05-19T19:16:37.972Z,12.73
2023-05-19T19:18:40.863Z,12.74
2023-05-19T19:20:43.565Z,12.77
2023-05-19T19:22:47.657Z,12.73
2023-05-19T19:24:50.324Z,12.73
2023-05-19T19:26:53.020Z,12.71
2023-05-19T19:28:55.714Z,12.68
2023-05-19T19:30:58.397Z,12.79
2023-05-19T19:33:01.207Z,12.74
2023-05-19T19:35:04.079Z,12.75
2023-05-19T19:37:06.813Z,12.74
2023-05-19T19:39:10.904Z,12.77
2023-05-19T19:41:13.688Z,12.78
2023-05-19T19:43:16.320Z,12.73
2023-05-19T19:45:19.535Z,12.72
2023-05-19T19:47:22.313Z,12.70
2023-05-19T19:49:25.086Z,12.66
2023-05-19T19:51:28.152Z,12.65
2023-05-19T19:53:30.865Z,12.72
2023-05-19T19:55:34.950Z,12.72
2023-05-19T19:57:37.744Z,12.73
2023-05-19T19:59:40.432Z,12.71
2023-05-19T20:01:43.232Z,12.70
2023-05-19T20:03:46.138Z,12.65
2023-05-19T20:05:48.907Z,12.69
2023-05-19T20:07:51.600Z,12.68
2023-05-19T20:09:55.871Z,12.68
2023-05-19T20:11:59.920Z,12.67
2023-05-19T20:14:02.682Z,12.69
2023-05-19T20:16:05.728Z,12.78
2023-05-19T20:18:08.411Z,12.68
2023-05-19T20:20:12.674Z,12.70
2023-05-19T20:22:15.753Z,12.71
2023-05-19T20:24:18.466Z,12.71
2023-05-19T20:26:22.465Z,12.70
2023-05-19T20:28:26.786Z,12.82
2023-05-19T20:30:29.605Z,12.84
2023-05-19T20:32:32.474Z,12.97
2023-05-19T20:34:35.245Z,12.98
2023-05-19T20:36:38.240Z,12.99
2023-05-19T20:38:41.036Z,13.08
2023-05-19T20:40:43.795Z,13.16
2023-05-19T20:42:46.518Z,13.22
2023-05-19T20:44:51.232Z,13.23
2023-05-19T20:46:54.627Z,13.28
2023-05-19T20:48:57.363Z,13.29
2023-05-19T20:51:00.031Z,13.32
2023-05-19T20:53:02.738Z,13.37
2023-05-19T20:55:05.943Z,13.34
2023-05-19T20:57:09.303Z,13.38
2023-05-19T20:59:12.162Z,13.32
2023-05-19T21:01:16.523Z,13.30
2023-05-19T21:03:20.183Z,13.32
2023-05-19T21:05:24.416Z,13.34
2023-05-19T21:07:27.136Z,13.35
2023-05-19T21:09:29.955Z,13.39
2023-05-19T21:11:32.687Z,13.40
2023-05-19T21:13:38.972Z,13.43
2023-05-19T21:15:41.720Z,13.40
2023-05-19T21:17:46.615Z,13.37
2023-05-19T21:19:50.732Z,13.37
2023-05-19T21:21:53.535Z,13.32
2023-05-19T21:23:56.706Z,13.32
2023-05-19T21:26:00.255Z,13.30
2023-05-19T21:28:03.277Z,13.27
2023-05-19T21:30:07.038Z,13.32
2023-05-19T21:32:09.815Z,13.30
2023-05-19T21:34:13.984Z,13.23
2023-05-19T21:36:16.821Z,13.23
2023-05-19T21:40:25.077Z,13.18
2023-05-19T21:42:27.720Z,13.16
2023-05-19T21:44:31.881Z,13.16
2023-05-19T21:46:34.647Z,13.19
2023-05-19T21:48:37.578Z,13.20
2023-05-19T21:50:41.647Z,13.10
2023-05-19T21:52:44.367Z,13.13
2023-05-19T21:54:47.845Z,12.88
2023-05-19T21:56:50.874Z,12.83
2023-05-19T21:58:53.582Z,12.87
2023-05-19T22:00:56.252Z,12.82
2023-05-19T22:02:59.085Z,12.78
2023-05-19T22:05:01.926Z,12.74
2023-05-19T22:07:06.841Z,12.74
2023-05-19T22:09:09.592Z,12.75
2023-05-19T22:11:14.843Z,12.61
2023-05-19T22:13:17.616Z,12.62
2023-05-19T22:15:20.628Z,12.48
2023-05-19T22:17:23.309Z,12.43
2023-05-19T22:19:26.098Z,12.52
2023-05-19T22:21:28.963Z,12.40
2023-05-19T22:23:33.206Z,12.45
2023-05-19T22:25:35.897Z,12.36
2023-05-19T22:27:38.626Z,12.37
2023-05-19T22:29:41.380Z,12.27
2023-05-19T22:31:44.091Z,12.29
2023-05-19T22:33:46.761Z,12.30
2023-05-19T22:35:49.595Z,12.22
2023-05-19T22:37:52.330Z,12.30
2023-05-19T22:39:56.366Z,12.29
2023-05-19T22:41:59.047Z,12.20
2023-05-19T22:44:02.118Z,12.19
2023-05-19T22:46:05.193Z,12.31
2023-05-19T22:48:08.164Z,12.23
2023-05-19T22:50:12.272Z,12.25
2023-05-19T22:52:15.177Z,12.22
2023-05-19T22:54:17.928Z,12.29
2023-05-19T22:56:22.543Z,12.30
2023-05-19T22:58:25.236Z,12.31
2023-05-19T23:00:27.971Z,12.32
2023-05-19T23:02:30.810Z,12.32
2023-05-19T23:04:34.085Z,12.28
2023-05-19T23:06:37.286Z,12.24
2023-05-19T23:08:40.035Z,12.30
2023-05-19T23:10:42.770Z,12.23
2023-05-19T23:12:46.865Z,12.22
2023-05-19T23:14:48.785Z,12.20
2023-05-19T23:16:51.455Z,12.24
2023-05-19T23:18:54.303Z,12.28
2023-05-19T23:20:57.190Z,12.19
2023-05-19T23:22:59.945Z,12.17
2023-05-19T23:25:07.388Z,12.17
2023-05-19T23:27:10.129Z,12.19
2023-05-19T23:29:14.969Z,12.22
2023-05-19T23:31:17.803Z,12.12
2023-05-19T23:33:20.662Z,12.12
2023-05-19T23:35:23.394Z,12.12
2023-05-19T23:37:26.064Z,12.12
2023-05-19T23:39:28.696Z,12.08
2023-05-19T23:41:31.452Z,12.13
2023-05-19T23:43:34.237Z,12.20
2023-05-19T23:45:38.312Z,12.16
2023-05-19T23:47:41.081Z,12.08
2023-05-19T23:49:43.817Z,12.05
2023-05-19T23:51:46.716Z,12.06
2023-05-19T23:53:49.486Z,12.03
2023-05-19T23:55:52.526Z,12.02
2023-05-19T23:57:55.222Z,12.03
2023-05-19T23:59:57.908Z,12.10
